Decoded Metar for UGKO (KOPITNARI in GEORGIA) (IATA:N/A) | Meteo·Mobile Aviation Weather
aviador You're here:

UGKO Decoded Metar

KOPITNARI in GEORGIA
Report Time2018-11-19 05:30:00
UTC Time2018-11-19 05:47:32
Flight Rules vfr VFR
Wind090° at 11 kt
W.Decomp.*RWY 08: 11.0 kt HW 0.8 kt RCW
W.Rank090° ranks 1
Current wind is above 090° avg. (10.4)
Visibility9999 m
Phenomena:N/A
Clouds:N/A
Expected CloudBase > 2,000 ft AGL from Temp-Dew spread
CeilingNone
Temp08°C (ISA -7)
Dew Point03°C (71% RH)
AAT2.5°C
QNH1022 hPa
Density Alt-764 ft
Elevation223 ft
Report Wrong Elevation
Raw Report
METAR UGKO 190530Z 09011KT CAVOK 08/03 Q1022 NOSIG=

Extra information for UGKO:More info

Metar Taf Metar & Taf Last 4 Metars F.Rules Stats Wind Profile Meteogram Temp Stats Airport Information Weather charts Add Link Nearby VenuesMetar ALERT Operation Metar Decoded Social comments